This is the latest recevied weather packets stored in our database for station/object K1LBG. If no packets are shown the sender has not sent any weather packets the latest 10 day(s).
| Time | Temp. | Humidity | Pressure | Rain* | Wind** | Luminosity | Snow |
|---|---|---|---|---|---|---|---|
| 1777361235 | 4.44° C | 87% | 1022.3 hPa | 0 mm | - | - | - |
| 1777359691 | 4.44° C | 86% | 1022.3 hPa | 0 mm | - | - | - |
| 1777357895 | 5° C | 85% | 1022.5 hPa | 0 mm | - | - | - |
| 1777356405 | 5.56° C | 84% | 1022.7 hPa | 0 mm | - | - | - |
| 1777354920 | 5.56° C | 83% | 1022.9 hPa | 0 mm | - | - | - |
| 1777353981 | 6.11° C | 82% | 1023.1 hPa | 0 mm | - | - | - |
| 1777352518 | 6.11° C | 81% | 1023.3 hPa | 0 mm | - | - | - |
| 1777349784 | 6.67° C | 78% | 1023.7 hPa | 0 mm | - | - | - |
| 1777347399 | 7.78° C | 75% | 1023.9 hPa | 0 mm | - | - | - |
| 1777346794 | 7.78° C | 75% | 1024 hPa | 0 mm | - | - | - |
| 1777345897 | 8.33° C | 73% | 1024 hPa | 0 mm | - | - | - |
| 1777345586 | 8.33° C | 72% | 1023.9 hPa | 0 mm | - | - | - |
| 1777345286 | 8.33° C | 73% | 1023.9 hPa | 0 mm | - | - | - |
| 1777344996 | 8.89° C | 73% | 1023.8 hPa | 0 mm | - | - | - |
| 1777340190 | 10° C | 65% | 1024 hPa | 0 mm | - | - | - |
| 1777339311 | 10.56° C | 67% | 1024.1 hPa | 0 mm | - | - | - |
| 1777337509 | 11.67° C | 62% | 1024.3 hPa | 0 mm | - | - | - |
| 1777336597 | 11.67° C | 61% | 1024.1 hPa | 0 mm | - | - | - |
| 1777335394 | 12.78° C | 59% | 1024.2 hPa | 0 mm | - | - | - |
| 1777333884 | 13.89° C | 55% | 1024 hPa | 0 mm | - | - | - |
| 1777333298 | 13.89° C | 54% | 1024.1 hPa | 0 mm | - | - | - |
| 1777332994 | 14.44° C | 53% | 1024.1 hPa | 0 mm | - | - | - |
| 1777331499 | 15.56° C | 51% | 1023.9 hPa | 0 mm | - | - | - |
| 1777331201 | 15.56° C | 49% | 1024 hPa | 0 mm | - | - | - |
| 1777330599 | 16.11° C | 47% | 1024.1 hPa | 0 mm | - | - | - |
* Rain latest hour (hover to see other rain measurements)
** Current wind speed in m/s (hover to see current wind gust speed)